createdAt,value
2023-05-14T00:00:55.212Z,12.93
2023-05-14T00:03:56.993Z,14.98
2023-05-14T00:06:58.961Z,14.40
2023-05-14T00:10:00.690Z,14.82
2023-05-14T00:13:02.659Z,13.13
2023-05-14T00:16:04.578Z,15.40
2023-05-14T00:19:06.576Z,14.43
2023-05-14T00:22:09.140Z,14.43
2023-05-14T00:25:11.021Z,14.50
2023-05-14T00:28:12.608Z,14.18
2023-05-14T00:31:14.171Z,14.93
2023-05-14T00:34:15.835Z,13.57
2023-05-14T00:37:17.467Z,13.33
2023-05-14T00:40:19.943Z,14.23
2023-05-14T00:43:22.653Z,13.90
2023-05-14T00:46:24.485Z,14.77
2023-05-14T00:49:26.680Z,14.17
2023-05-14T00:52:28.397Z,14.13
2023-05-14T00:55:31.052Z,15.15
2023-05-14T00:58:32.643Z,14.65
2023-05-14T01:01:34.428Z,16.13
2023-05-14T01:04:36.607Z,13.55
2023-05-14T01:07:59.762Z,13.70
2023-05-14T01:11:27.824Z,13.40
2023-05-14T01:14:52.616Z,14.35
2023-05-14T01:18:02.557Z,14.48
2023-05-14T01:21:04.331Z,12.50
2023-05-14T01:24:06.950Z,15.85
2023-05-14T01:27:23.535Z,15.48
2023-05-14T01:30:50.787Z,15.70
2023-05-14T01:33:54.510Z,13.90
2023-05-14T01:36:57.709Z,15.25
2023-05-14T01:40:00.342Z,17.38
2023-05-14T01:43:03.466Z,15.77
2023-05-14T01:46:05.318Z,16.25
2023-05-14T01:49:07.183Z,13.73
2023-05-14T01:52:09.149Z,17.57
2023-05-14T01:55:11.527Z,14.68
2023-05-14T01:58:13.504Z,13.75
2023-05-14T02:01:15.211Z,13.20
2023-05-14T02:04:16.988Z,14.97
2023-05-14T02:07:18.735Z,15.13
2023-05-14T02:10:21.266Z,14.32
2023-05-14T02:13:26.682Z,14.45
2023-05-14T02:16:28.376Z,13.23
2023-05-14T02:19:30.539Z,13.32
2023-05-14T02:22:32.625Z,16.77
2023-05-14T02:25:34.521Z,13.83
2023-05-14T02:28:36.126Z,15.82
2023-05-14T02:31:37.879Z,16.25
2023-05-14T02:34:39.473Z,15.87
2023-05-14T02:37:41.318Z,15.95
2023-05-14T02:40:42.895Z,16.98
2023-05-14T02:43:44.473Z,15.68
2023-05-14T02:46:46.554Z,16.02
2023-05-14T02:49:48.178Z,18.85
2023-05-14T02:52:49.808Z,22.98
2023-05-14T02:55:51.432Z,16.67
2023-05-14T02:58:53.135Z,15.25
2023-05-14T03:01:55.336Z,14.35
2023-05-14T03:04:57.502Z,15.67
2023-05-14T03:07:59.076Z,15.02
2023-05-14T03:11:00.740Z,15.07
2023-05-14T03:14:03.587Z,15.18
2023-05-14T03:17:05.521Z,14.10
2023-05-14T03:20:07.545Z,15.15
2023-05-14T03:23:11.095Z,14.95
2023-05-14T03:26:13.186Z,14.00
2023-05-14T03:29:17.988Z,16.13
2023-05-14T03:32:19.754Z,13.35
2023-05-14T03:35:22.460Z,14.30
2023-05-14T03:38:24.048Z,13.83
2023-05-14T03:41:26.192Z,15.98
2023-05-14T03:44:27.848Z,13.77
2023-05-14T03:47:29.480Z,16.60
2023-05-14T03:50:32.427Z,14.18
2023-05-14T03:53:34.157Z,15.60
2023-05-14T03:56:35.821Z,15.50
2023-05-14T03:59:38.253Z,13.57
2023-05-14T04:02:39.904Z,17.15
2023-05-14T04:05:41.669Z,16.92
2023-05-14T04:08:43.223Z,15.30
2023-05-14T04:11:44.738Z,15.90
2023-05-14T04:14:46.351Z,15.75
2023-05-14T04:17:47.907Z,17.58
2023-05-14T04:20:49.762Z,16.85
2023-05-14T04:23:51.935Z,19.05
2023-05-14T04:26:53.982Z,17.20
2023-05-14T04:29:55.966Z,17.17
2023-05-14T04:32:58.230Z,17.73
2023-05-14T04:36:00.155Z,15.30
2023-05-14T04:39:02.422Z,15.10
2023-05-14T04:42:04.492Z,15.85
2023-05-14T04:45:07.335Z,17.33
2023-05-14T04:48:09.457Z,16.20
2023-05-14T04:51:11.639Z,15.90
2023-05-14T04:54:13.325Z,16.77
2023-05-14T04:57:16.489Z,17.30
2023-05-14T05:00:19.236Z,16.00
2023-05-14T05:03:21.389Z,16.55
2023-05-14T05:06:23.340Z,18.42
2023-05-14T05:09:24.919Z,16.65
2023-05-14T05:12:30.015Z,17.97
2023-05-14T05:15:31.880Z,18.55
2023-05-14T05:18:33.783Z,16.85
2023-05-14T05:21:36.320Z,17.90
2023-05-14T05:24:38.386Z,19.83
2023-05-14T05:27:40.092Z,17.75
2023-05-14T05:30:41.733Z,18.00
2023-05-14T05:33:44.857Z,18.20
2023-05-14T05:36:46.396Z,16.30
2023-05-14T05:39:48.322Z,16.95
2023-05-14T05:42:50.332Z,19.65
2023-05-14T05:45:52.674Z,17.17
2023-05-14T05:48:56.166Z,17.67
2023-05-14T05:51:58.323Z,18.42
2023-05-14T05:55:01.056Z,19.93
2023-05-14T05:58:03.116Z,19.67
2023-05-14T06:01:05.150Z,19.00
2023-05-14T06:04:06.818Z,19.87
2023-05-14T06:07:08.405Z,18.08
2023-05-14T06:10:10.333Z,17.27
2023-05-14T06:13:12.298Z,18.60
2023-05-14T06:16:14.513Z,18.75
2023-05-14T06:19:16.285Z,18.50
2023-05-14T06:22:20.047Z,18.10
2023-05-14T06:25:22.169Z,19.70
2023-05-14T06:28:24.200Z,17.77
2023-05-14T06:31:26.883Z,17.45
2023-05-14T06:34:29.070Z,18.40
2023-05-14T06:37:30.895Z,19.20
2023-05-14T06:40:32.564Z,18.83
2023-05-14T06:43:34.650Z,21.95
2023-05-14T06:46:37.421Z,16.93
2023-05-14T06:49:39.623Z,17.40
2023-05-14T06:52:43.930Z,19.95
2023-05-14T06:55:47.845Z,18.27
2023-05-14T06:58:49.812Z,19.00
2023-05-14T07:01:52.024Z,17.70
2023-05-14T07:04:54.160Z,19.00
2023-05-14T07:07:55.802Z,18.90
2023-05-14T07:10:57.664Z,18.60
2023-05-14T07:14:00.046Z,18.17
2023-05-14T07:17:02.065Z,19.98
2023-05-14T07:20:04.083Z,19.63
2023-05-14T07:23:06.143Z,19.83
2023-05-14T07:26:08.668Z,22.80
2023-05-14T07:29:10.578Z,17.20
2023-05-14T07:32:15.465Z,19.08
2023-05-14T07:35:18.002Z,21.63
2023-05-14T07:38:20.297Z,20.70
2023-05-14T07:41:21.926Z,18.15
2023-05-14T07:44:24.838Z,20.90
2023-05-14T07:47:26.620Z,20.60
2023-05-14T07:50:29.584Z,19.80
2023-05-14T07:53:31.380Z,21.05
2023-05-14T07:56:33.444Z,21.63
2023-05-14T07:59:35.060Z,20.70
2023-05-14T08:02:37.797Z,20.63
2023-05-14T08:05:39.939Z,21.30
2023-05-14T08:08:41.922Z,21.10
2023-05-14T08:11:43.539Z,20.35
2023-05-14T08:14:45.670Z,19.77
2023-05-14T08:17:47.646Z,20.65
2023-05-14T08:20:49.250Z,18.38
2023-05-14T08:23:51.240Z,18.70
2023-05-14T08:26:53.105Z,16.45
2023-05-14T08:29:55.132Z,16.90
2023-05-14T08:32:58.739Z,15.70
2023-05-14T08:36:00.653Z,15.07
2023-05-14T08:39:02.724Z,16.20
2023-05-14T08:42:06.719Z,13.32
2023-05-14T08:45:25.720Z,15.68
2023-05-14T08:48:33.498Z,17.17
2023-05-14T08:51:35.976Z,12.02
2023-05-14T08:54:38.095Z,12.48
2023-05-14T08:57:40.326Z,13.90
2023-05-14T09:00:42.669Z,14.07
2023-05-14T09:03:45.818Z,14.05
2023-05-14T09:06:51.195Z,13.23
2023-05-14T09:09:54.997Z,12.13
2023-05-14T09:12:57.485Z,13.25
2023-05-14T09:16:03.445Z,11.73
2023-05-14T09:19:07.018Z,11.70
2023-05-14T09:22:11.519Z,11.73
2023-05-14T09:25:13.573Z,11.27
2023-05-14T09:28:19.068Z,11.43
2023-05-14T09:31:21.269Z,10.70
2023-05-14T09:34:28.682Z,10.38
2023-05-14T09:37:30.780Z,10.80
2023-05-14T09:40:32.760Z,11.02
2023-05-14T09:43:34.400Z,10.43
2023-05-14T09:46:36.247Z,10.25
2023-05-14T09:49:39.778Z,9.45
2023-05-14T09:52:42.643Z,11.18
2023-05-14T09:55:45.278Z,9.53
2023-05-14T09:58:46.940Z,9.52
2023-05-14T10:01:49.934Z,14.77
2023-05-14T10:04:54.435Z,13.65
2023-05-14T10:07:59.700Z,8.97
2023-05-14T10:11:06.900Z,9.07
2023-05-14T10:14:08.844Z,10.25
2023-05-14T10:17:18.453Z,10.05
2023-05-14T10:20:22.943Z,9.77
2023-05-14T10:23:25.333Z,8.88
2023-05-14T10:26:30.905Z,10.35
2023-05-14T10:29:37.554Z,9.48
2023-05-14T10:32:41.875Z,10.07
2023-05-14T10:35:55.673Z,12.13
2023-05-14T10:38:57.778Z,9.85
2023-05-14T10:42:00.176Z,10.80
2023-05-14T10:45:07.749Z,10.43
2023-05-14T10:48:09.975Z,10.18
2023-05-14T10:51:12.579Z,10.70
2023-05-14T10:54:16.941Z,11.88
2023-05-14T10:57:20.651Z,9.50
2023-05-14T11:00:27.653Z,10.07
2023-05-14T11:03:32.268Z,10.82
2023-05-14T11:06:36.568Z,10.98
2023-05-14T11:09:38.782Z,10.57
2023-05-14T11:12:43.692Z,11.30
2023-05-14T11:15:48.580Z,9.45
2023-05-14T11:19:01.945Z,9.57
2023-05-14T11:22:05.160Z,9.05
2023-05-14T11:25:08.180Z,8.37
2023-05-14T11:28:10.680Z,8.77
2023-05-14T11:31:13.037Z,9.38
2023-05-14T11:34:15.176Z,9.98
2023-05-14T11:37:17.855Z,9.93
2023-05-14T11:40:20.250Z,10.77
2023-05-14T11:43:28.454Z,9.43
2023-05-14T11:46:31.045Z,8.15
2023-05-14T11:49:35.950Z,7.63
2023-05-14T11:52:40.401Z,10.53
2023-05-14T11:55:42.137Z,8.07
2023-05-14T11:58:48.809Z,8.95
2023-05-14T12:01:52.537Z,7.65
2023-05-14T12:04:54.747Z,8.73
2023-05-14T12:07:56.765Z,7.75
2023-05-14T12:11:00.482Z,7.78
2023-05-14T12:14:02.121Z,7.85
2023-05-14T12:17:03.807Z,8.32
2023-05-14T12:20:13.037Z,8.40
2023-05-14T12:23:15.386Z,7.55
2023-05-14T12:26:16.990Z,8.25
2023-05-14T12:29:21.737Z,7.68
2023-05-14T12:32:26.363Z,7.15
2023-05-14T12:35:28.203Z,7.63
2023-05-14T12:38:31.999Z,7.47
2023-05-14T12:41:34.492Z,7.20
2023-05-14T12:44:36.447Z,7.97
2023-05-14T12:47:40.923Z,8.00
2023-05-14T12:50:42.918Z,7.13
2023-05-14T12:53:45.112Z,8.38
2023-05-14T12:56:46.752Z,6.93
2023-05-14T12:59:48.333Z,7.25
2023-05-14T13:02:50.356Z,7.10
2023-05-14T13:05:54.182Z,6.80
2023-05-14T13:08:56.783Z,7.72
2023-05-14T13:11:59.219Z,7.55
2023-05-14T13:15:01.314Z,7.25
2023-05-14T13:18:03.621Z,7.75
2023-05-14T13:21:06.801Z,7.57
2023-05-14T13:24:10.157Z,6.82
2023-05-14T13:27:12.099Z,7.43
2023-05-14T13:30:14.213Z,7.47
2023-05-14T13:33:16.334Z,6.53
2023-05-14T13:36:18.382Z,7.07
2023-05-14T13:39:22.746Z,7.03
2023-05-14T13:42:24.898Z,7.28
2023-05-14T13:45:26.895Z,6.93
2023-05-14T13:48:31.136Z,5.63
2023-05-14T13:51:33.852Z,6.70
2023-05-14T13:54:38.802Z,6.22
2023-05-14T13:57:41.800Z,5.40
2023-05-14T14:00:43.940Z,6.03
2023-05-14T14:03:46.055Z,6.68
2023-05-14T14:06:48.063Z,6.50
2023-05-14T14:09:49.715Z,5.75
2023-05-14T14:12:52.398Z,5.30
2023-05-14T14:15:54.480Z,6.70
2023-05-14T14:18:57.418Z,6.47
2023-05-14T14:21:59.576Z,5.63
2023-05-14T14:25:02.122Z,6.47
2023-05-14T14:28:10.072Z,7.70
2023-05-14T14:31:17.880Z,6.32
2023-05-14T14:34:21.556Z,6.13
2023-05-14T14:38:02.110Z,6.50
2023-05-14T14:41:10.396Z,6.32
2023-05-14T14:44:56.473Z,7.30
2023-05-14T14:47:53.399Z,6.70
2023-05-14T14:50:56.377Z,5.82
2023-05-14T14:53:57.946Z,6.60
2023-05-14T14:56:59.514Z,5.80
2023-05-14T15:00:02.782Z,5.85
2023-05-14T15:03:05.057Z,7.47
2023-05-14T15:06:07.258Z,6.75
2023-05-14T15:09:09.309Z,8.87
2023-05-14T15:12:11.190Z,6.32
2023-05-14T15:15:13.210Z,6.22
2023-05-14T15:18:15.177Z,6.97
2023-05-14T15:21:16.771Z,8.63
2023-05-14T15:24:18.899Z,5.57
2023-05-14T15:27:20.987Z,5.83
2023-05-14T15:30:23.147Z,7.07
2023-05-14T15:33:25.226Z,5.43
2023-05-14T15:36:27.078Z,6.00
2023-05-14T15:39:30.227Z,5.50
2023-05-14T15:42:32.039Z,5.50
2023-05-14T15:45:35.766Z,5.15
2023-05-14T15:48:38.122Z,5.55
2023-05-14T15:51:40.394Z,5.25
2023-05-14T15:54:46.668Z,5.17
2023-05-14T15:57:48.837Z,5.10
2023-05-14T16:00:50.497Z,5.53
2023-05-14T16:03:54.084Z,4.90
2023-05-14T16:07:04.290Z,5.22
2023-05-14T16:10:06.936Z,5.73
2023-05-14T16:13:09.146Z,5.22
2023-05-14T16:16:10.817Z,6.38
2023-05-14T16:19:13.023Z,6.55
2023-05-14T16:22:15.218Z,5.63
2023-05-14T16:25:18.695Z,5.27
2023-05-14T16:28:20.498Z,6.72
2023-05-14T16:31:22.326Z,5.90
2023-05-14T16:34:24.378Z,5.53
2023-05-14T16:37:26.007Z,5.55
2023-05-14T16:40:27.649Z,5.30
2023-05-14T16:43:29.689Z,6.10
2023-05-14T16:46:32.112Z,5.60
2023-05-14T16:49:34.340Z,6.57
2023-05-14T16:52:36.519Z,5.90
2023-05-14T16:55:38.620Z,6.77
2023-05-14T16:58:40.339Z,6.45
2023-05-14T17:01:43.310Z,6.68
2023-05-14T17:04:45.276Z,6.97
2023-05-14T17:07:47.051Z,6.32
2023-05-14T17:10:49.528Z,5.10
2023-05-14T17:13:51.607Z,5.63
2023-05-14T17:16:54.432Z,5.30
2023-05-14T17:19:56.358Z,5.25
2023-05-14T17:22:58.350Z,4.97
2023-05-14T17:26:00.058Z,5.83
2023-05-14T17:29:12.101Z,5.05
2023-05-14T17:32:20.826Z,5.20
2023-05-14T17:35:23.295Z,5.50
2023-05-14T17:38:26.602Z,6.03
2023-05-14T17:41:28.684Z,5.90
2023-05-14T17:44:30.306Z,6.25
2023-05-14T17:47:32.319Z,6.40
2023-05-14T17:50:34.552Z,6.78
2023-05-14T17:53:36.369Z,5.40
2023-05-14T17:56:38.971Z,6.43
2023-05-14T17:59:41.412Z,5.55
2023-05-14T18:02:43.030Z,4.97
2023-05-14T18:05:45.011Z,5.33
2023-05-14T18:08:46.775Z,6.22
2023-05-14T18:11:48.463Z,6.60
2023-05-14T18:14:50.769Z,6.35
2023-05-14T18:17:53.053Z,5.70
2023-05-14T18:20:56.199Z,5.97
2023-05-14T18:23:58.315Z,6.75
2023-05-14T18:27:00.451Z,7.47
2023-05-14T18:30:03.518Z,5.75
2023-05-14T18:33:05.237Z,6.07
2023-05-14T18:36:06.943Z,6.18
2023-05-14T18:39:08.607Z,6.55
2023-05-14T18:42:10.904Z,5.63
2023-05-14T18:45:12.546Z,5.90
2023-05-14T18:48:14.855Z,5.95
2023-05-14T18:51:16.876Z,6.10
2023-05-14T18:54:19.072Z,5.88
2023-05-14T18:57:22.217Z,5.20
2023-05-14T19:00:24.056Z,5.70
2023-05-14T19:03:26.063Z,5.57
2023-05-14T19:06:28.570Z,6.00
2023-05-14T19:09:31.151Z,6.80
2023-05-14T19:12:32.991Z,6.03
2023-05-14T19:15:34.670Z,6.05
2023-05-14T19:18:36.714Z,5.80
2023-05-14T19:21:38.720Z,7.03
2023-05-14T19:24:41.261Z,7.00
2023-05-14T19:27:43.074Z,7.97
2023-05-14T19:30:44.796Z,7.68
2023-05-14T19:33:47.477Z,6.82
2023-05-14T19:36:49.171Z,7.90
2023-05-14T19:39:50.784Z,8.32
2023-05-14T19:42:53.125Z,8.23
2023-05-14T19:45:54.719Z,7.87
2023-05-14T19:48:56.750Z,10.65
2023-05-14T19:51:58.677Z,8.80
2023-05-14T19:55:00.249Z,8.25
2023-05-14T19:58:01.868Z,7.85
2023-05-14T20:01:04.329Z,8.02
2023-05-14T20:04:07.358Z,8.13
2023-05-14T20:07:10.738Z,7.87
2023-05-14T20:10:15.949Z,8.50
2023-05-14T20:13:18.064Z,8.80
2023-05-14T20:16:19.756Z,8.82
2023-05-14T20:19:22.498Z,8.03
2023-05-14T20:22:24.771Z,9.40
2023-05-14T20:25:28.372Z,11.15
2023-05-14T20:28:31.920Z,11.03
2023-05-14T20:31:33.588Z,9.73
2023-05-14T20:34:35.202Z,9.68
2023-05-14T20:37:37.674Z,8.18
2023-05-14T20:40:39.573Z,10.10
2023-05-14T20:43:41.199Z,9.48
2023-05-14T20:46:43.861Z,10.45
2023-05-14T20:49:46.918Z,10.07
2023-05-14T20:52:49.936Z,9.95
2023-05-14T20:55:51.628Z,11.52
2023-05-14T20:58:53.935Z,11.48
2023-05-14T21:01:56.777Z,11.37
2023-05-14T21:04:59.263Z,10.65
2023-05-14T21:08:00.933Z,11.48
2023-05-14T21:11:02.910Z,10.33
2023-05-14T21:14:05.505Z,12.18
2023-05-14T21:17:07.205Z,10.98
2023-05-14T21:20:11.919Z,12.35
2023-05-14T21:23:13.861Z,11.20
2023-05-14T21:26:15.643Z,10.70
2023-05-14T21:29:17.275Z,10.40
2023-05-14T21:32:20.224Z,10.83
2023-05-14T21:35:23.006Z,10.98
2023-05-14T21:38:25.824Z,11.10
2023-05-14T21:41:27.814Z,11.97
2023-05-14T21:44:29.774Z,10.48
2023-05-14T21:47:32.995Z,10.93
2023-05-14T21:50:34.801Z,11.68
2023-05-14T21:53:37.418Z,13.55
2023-05-14T21:56:39.021Z,12.25
2023-05-14T21:59:40.713Z,11.88
2023-05-14T22:02:42.743Z,13.27
2023-05-14T22:05:44.377Z,13.43
2023-05-14T22:08:46.423Z,12.73
2023-05-14T22:11:48.066Z,13.50
2023-05-14T22:14:50.032Z,14.30
2023-05-14T22:17:52.056Z,14.20
2023-05-14T22:20:54.109Z,13.88
2023-05-14T22:23:56.109Z,15.80
2023-05-14T22:26:58.114Z,16.40
2023-05-14T22:30:01.254Z,14.68
2023-05-14T22:33:03.294Z,16.07
2023-05-14T22:36:07.373Z,15.00
2023-05-14T22:39:11.502Z,15.25
2023-05-14T22:42:15.304Z,15.23
2023-05-14T22:45:17.306Z,14.85
2023-05-14T22:48:18.962Z,14.20
2023-05-14T22:51:20.522Z,14.02
2023-05-14T22:54:22.374Z,14.55
2023-05-14T22:57:24.436Z,14.10
2023-05-14T23:00:26.033Z,14.38
2023-05-14T23:03:27.891Z,14.43
2023-05-14T23:06:30.215Z,14.13
2023-05-14T23:09:32.180Z,14.18
2023-05-14T23:12:33.983Z,12.70
2023-05-14T23:15:35.948Z,17.08
2023-05-14T23:18:37.767Z,14.35
2023-05-14T23:21:39.898Z,15.40
2023-05-14T23:24:41.894Z,13.63
2023-05-14T23:27:43.995Z,13.80
2023-05-14T23:30:46.151Z,14.13
2023-05-14T23:33:48.119Z,14.20
2023-05-14T23:36:50.723Z,14.32
2023-05-14T23:39:53.607Z,16.67
2023-05-14T23:42:55.662Z,16.08
2023-05-14T23:45:57.864Z,17.38
2023-05-14T23:48:59.684Z,17.33
2023-05-14T23:52:02.335Z,19.27
2023-05-14T23:55:05.060Z,20.13
2023-05-14T23:58:07.872Z,19.20
